Latest Weather Observations for Moorabbin Airport

IDV60801

Issued at 9:31 am EDT Thursday 2 April 2015 (issued every 30 minutes, with the page automatically refreshed every 10 minutes)

About weather observations | Map of weather stations | Latest weather observations for VIC | Other Formats
Station Details ID: 086077 Name: MOORABBIN AIRPORT Lat: -37.98 Lon: 145.10 Height: 12.1 m
Data from the previous 72 hours. | See also: Recent months at Moorabbin Airport
Date/Time
EDT
Temp
°C
App
Temp
°C
Dew
Point
Rel
Hum
%
Delta-T
°C
Wind Press
QNH
hPa
Press
MSL
hPa
Rain
since 9 am
mm
Dir
 
Spd
km/h
Gust
km/h
Spd
kts
Gust
kts
02/09:30am 15.1 8.6 6.7 57 4.1 SSW 30 39 16 21 1022.6 1022.6 0.0
02/09:00am 14.9 8.7 7.9 63 3.5 SW 30 41 16 22 1022.0 1022.0 1.6
02/08:30am 14.3 9.7 8.0 66 3.1 WSW 22 35 12 19 1021.6 1021.6 1.6
02/08:00am 13.6 9.0 8.2 70 2.7 WSW 22 33 12 18 1021.1 1021.1 1.6
02/07:39am 13.1 7.8 8.4 73 2.3 WSW 26 46 14 25 1020.9 1020.9 1.6
02/07:37am 13.3 8.0 8.4 72 2.4 WSW 26 46 14 25 1020.9 1020.9 1.6
02/07:30am 14.0 9.6 6.6 61 3.6 W 19 28 10 15 1020.4 1020.4 1.6
02/07:00am 13.8 9.5 7.1 64 3.3 WSW 19 32 10 17 1020.1 1020.1 1.6
02/06:30am 14.1 9.9 8.1 67 3.0 WSW 20 33 11 18 1019.7 1019.7 1.6
02/06:00am 14.4 9.1 8.4 67 3.0 WSW 26 41 14 22 1018.9 1018.9 1.6
02/05:30am 14.9 10.4 9.9 72 2.6 WSW 24 35 13 19 1018.4 1018.4 1.6
02/05:00am 14.8 10.2 9.8 72 2.6 SW 24 35 13 19 1018.0 1018.0 1.6
02/04:30am 14.6 11.0 11.7 83 1.6 SW 22 35 12 19 1017.7 1017.7 1.4
02/04:00am 14.5 9.4 12.0 85 1.3 SW 30 43 16 23 1017.3 1017.3 1.0
02/03:37am 14.6 10.1 12.5 87 1.1 WSW 28 46 15 25 1017.3 1017.3 0.8
02/03:30am 14.6 9.1 11.9 84 1.5 WSW 32 46 17 25 1017.2 1017.2 0.6
02/03:15am 14.4 9.1 12.6 89 1.0 SW 32 50 17 27 1017.1 1017.1 0.4
02/03:00am 15.1 9.8 13.1 88 1.1 SW 33 46 18 25 1017.0 1017.0 0.0
02/02:49am 15.7 10.7 13.4 86 1.3 SW 32 44 17 24 1016.9 1016.9 0.0
02/02:30am 16.5 11.9 13.4 82 1.7 SW 30 46 16 25 1016.4 1016.4 0.0
02/02:12am 18.4 14.3 13.9 75 2.6 W 28 48 15 26 1015.5 1015.5 0.0
02/02:00am 18.8 15.5 14.1 74 2.7 W 24 33 13 18 1015.4 1015.4 0.0
02/01:30am 19.0 17.3 14.7 76 2.5 W 17 24 9 13 1015.4 1015.4 0.0
02/01:00am 19.0 16.8 14.9 77 2.4 W 20 33 11 18 1015.1 1015.1 0.0
02/12:31am 19.3 15.5 14.8 75 2.6 W 28 46 15 25 1014.8 1014.8 0.0
02/12:30am 19.3 15.2 14.8 75 2.6 WSW 30 46 16 25 1014.8 1014.8 0.0
02/12:14am 20.0 16.9 14.4 70 3.3 WSW 24 41 13 22 1014.3 1014.3 0.0
02/12:00am 20.3 19.6 14.2 68 3.5 WSW 11 19 6 10 1014.1 1014.1 0.0
 
Date/Time
EDT
Temp
°C
App
Temp
°C
Dew
Point
Rel
Hum
%
Delta-T
°C
Wind Press
QNH
hPa
Press
MSL
hPa
Rain
since 9 am
mm
Dir
 
Spd
km/h
Gust
km/h
Spd
kts
Gust
kts
01/11:30pm 20.6 18.2 13.8 65 3.9 WSW 19 28 10 15 1013.7 1013.7 0.0
01/11:00pm 21.2 17.6 13.1 60 4.6 WSW 24 33 13 18 1013.5 1013.5 0.0
01/10:41pm 23.3 19.0 10.7 45 7.0 WNW 24 46 13 25 1013.1 1013.1 0.0
01/10:38pm 24.5 20.6 9.6 39 8.1 NNW 20 43 11 23 1013.0 1013.0 0.0
01/10:30pm 25.7 21.7 8.2 33 9.4 N 19 24 10 13 1012.0 1012.0 0.0
01/10:00pm 26.0 21.9 8.0 32 9.6 N 19 22 10 12 1011.8 1011.8 0.0
01/09:30pm 26.0 22.3 8.0 32 9.6 N 17 20 9 11 1011.8 1011.8 0.0
01/09:00pm 26.4 22.8 8.4 32 9.7 N 17 19 9 10 1011.8 1011.8 0.0
01/08:30pm 26.7 23.1 8.2 31 10.0 N 17 22 9 12 1011.7 1011.7 0.0
01/08:00pm 26.9 23.7 8.4 31 10.0 N 15 19 8 10 1011.7 1011.7 0.0
01/07:30pm 27.6 23.9 8.0 29 10.6 NNW 17 22 9 12 1011.4 1011.4 0.0
01/07:00pm 28.3 24.3 8.1 28 11.0 NNW 19 28 10 15 1011.4 1011.4 0.0
01/06:30pm 28.5 24.9 8.2 28 11.1 NNW 17 24 9 13 1011.6 1011.6 0.0
01/06:00pm 29.0 24.0 8.1 27 11.4 NNW 24 35 13 19 1011.8 1011.7 0.0
01/05:30pm 29.3 24.5 8.9 28 11.3 NW 24 35 13 19 1011.9 1011.9 0.0
01/05:00pm 29.0 24.3 9.2 29 11.0 NW 24 35 13 19 1012.0 1012.0 0.0
01/04:30pm 28.5 24.3 11.1 34 9.9 N 24 37 13 20 1012.3 1012.3 0.0
01/04:00pm 28.6 23.4 11.6 34 9.8 N 30 41 16 22 1012.5 1012.5 0.0
01/03:44pm 28.4 22.8 11.5 35 9.7 N 32 50 17 27 1012.6 1012.6 0.0
01/03:30pm 28.6 22.3 11.2 34 10.0 N 35 50 19 27 1012.7 1012.7 0.0
01/03:21pm 28.5 22.8 11.1 34 9.9 N 32 50 17 27 1012.6 1012.6 0.0
01/03:00pm 28.8 23.0 11.4 34 10.0 NNW 33 50 18 27 1013.3 1013.3 0.0
01/02:42pm 28.6 22.3 11.2 34 10.0 NNW 35 54 19 29 1013.4 1013.4 0.0
01/02:30pm 28.7 21.2 10.8 33 10.2 NNW 41 57 22 31 1013.5 1013.5 0.0
01/02:00pm 28.4 22.1 11.0 34 9.9 NNW 35 54 19 29 1014.1 1014.1 0.0
01/01:47pm 29.0 23.1 10.6 32 10.5 NNW 32 54 17 29 1014.3 1014.3 0.0
01/01:30pm 29.0 22.7 11.1 33 10.3 NNW 35 46 19 25 1014.8 1014.8 0.0
01/01:00pm 27.3 22.3 12.1 39 8.8 N 30 39 16 21 1015.1 1015.1 0.0
01/12:30pm 27.5 22.6 12.7 40 8.6 N 30 37 16 20 1015.9 1015.9 0.0
01/12:00pm 25.7 20.9 11.8 42 7.9 N 28 39 15 21 1016.6 1016.6 0.0
01/11:30am 24.4 20.4 11.7 45 7.2 N 24 33 13 18 1017.3 1017.3 0.0
01/11:00am 23.7 19.4 12.0 48 6.6 N 26 35 14 19 1017.6 1017.6 0.0
01/10:30am 23.2 19.1 11.6 48 6.5 N 24 33 13 18 1018.1 1018.1 0.0
01/10:00am 22.6 18.9 11.4 49 6.2 N 22 33 12 18 1018.4 1018.4 0.0
01/09:30am 22.2 18.4 11.0 49 6.2 N 22 28 12 15 1018.7 1018.7 0.0
01/09:00am 22.6 18.8 11.0 48 6.4 N 22 32 12 17 1018.8 1018.8 0.0
01/08:30am 20.5 17.0 10.3 52 5.5 N 19 30 10 16 1018.8 1018.8 0.0
01/08:00am 19.0 15.8 10.0 56 4.8 NNE 17 22 9 12 1018.6 1018.6 0.0
01/07:30am 18.4 14.7 10.3 59 4.3 N 20 24 11 13 1018.6 1018.6 0.0
01/07:00am 15.5 12.8 10.3 71 2.7 N 15 17 8 9 1018.6 1018.6 0.0
01/06:30am 14.3 13.1 11.6 84 1.4 N 9 15 5 8 1018.6 1018.6 0.0
01/06:00am 12.2 12.5 10.9 92 0.7 CALM 0 0 0 0 1018.5 1018.5 0.0
01/05:30am 12.7 12.4 11.4 92 0.7 N 4 9 2 5 1018.6 1018.6 0.0
01/05:00am 12.7 13.1 11.3 91 0.7 CALM 0 0 0 0 1018.7 1018.7 0.0
01/04:30am 12.9 13.4 11.6 92 0.7 CALM 0 0 0 0 1018.9 1018.9 0.0
01/04:00am 12.8 13.2 11.2 90 0.8 CALM 0 0 0 0 1019.3 1019.3 0.0
01/03:30am 13.4 13.9 11.6 89 1.0 CALM 0 0 0 0 1019.6 1019.6 0.0
01/03:00am 13.5 13.7 10.7 83 1.5 CALM 0 0 0 0 1019.9 1019.9 0.0
01/02:30am 14.8 14.2 11.8 82 1.6 NNW 6 7 3 4 1020.4 1020.4 0.0
01/02:00am 15.3 14.4 12.6 84 1.5 N 9 9 5 5 1020.8 1020.8 0.0
01/01:30am 14.6 13.7 12.6 88 1.1 N 9 11 5 6 1021.0 1021.0 0.0
01/01:00am 14.4 14.1 12.6 89 1.0 N 6 9 3 5 1021.2 1021.2 0.0
01/12:30am 14.6 15.4 12.6 88 1.1 CALM 0 0 0 0 1021.7 1021.7 0.0
01/12:00am 15.8 16.9 13.5 86 1.3 CALM 0 0 0 0 1021.9 1021.9 0.0
 
Date/Time
EDT
Temp
°C
App
Temp
°C
Dew
Point
Rel
Hum
%
Delta-T
°C
Wind Press
QNH
hPa
Press
MSL
hPa
Rain
since 9 am
mm
Dir
 
Spd
km/h
Gust
km/h
Spd
kts
Gust
kts
31/11:30pm 16.2 16.0 13.5 84 1.5 NE 7 9 4 5 1021.8 1021.8 0.0
31/11:00pm 16.0 15.7 13.3 84 1.5 NE 7 9 4 5 1021.9 1021.9 0.0
31/10:30pm 16.2 15.9 13.3 83 1.6 NNE 7 7 4 4 1021.9 1021.9 0.0
31/10:00pm 16.4 16.2 13.5 83 1.6 SE 7 9 4 5 1022.2 1022.2 0.0
31/09:30pm 16.6 15.6 13.3 81 1.8 ESE 11 13 6 7 1022.4 1022.4 0.0
31/09:00pm 16.7 15.9 13.0 79 2.1 ESE 9 11 5 6 1022.2 1022.2 0.0
31/08:30pm 17.5 16.0 13.2 76 2.4 ESE 13 15 7 8 1022.0 1022.0 0.0
31/08:00pm 18.5 16.6 13.1 71 3.0 SE 15 20 8 11 1021.8 1021.8 0.0
31/07:30pm 19.8 17.1 13.0 65 3.9 SE 19 26 10 14 1021.5 1021.5 0.0
31/07:00pm 21.3 18.4 13.0 59 4.7 SE 20 26 11 14 1021.4 1021.4 0.0
31/06:30pm 22.8 19.6 13.0 54 5.6 SSE 22 28 12 15 1021.3 1021.3 0.0
31/06:00pm 23.3 21.2 12.3 50 6.2 S 15 19 8 10 1021.2 1021.2 0.0
31/05:30pm 23.7 21.6 12.4 49 6.5 SSW 15 19 8 10 1021.3 1021.3 0.0
31/05:00pm 23.8 21.7 12.4 48 6.5 SSW 15 19 8 10 1021.4 1021.4 0.0
31/04:30pm 23.5 21.4 13.7 54 5.7 SSW 17 20 9 11 1021.7 1021.7 0.0
31/04:00pm 23.3 21.7 14.0 56 5.4 SSW 15 19 8 10 1022.0 1022.0 0.0
31/03:30pm 23.2 21.3 13.1 53 5.8 SSW 15 20 8 11 1022.4 1022.4 0.0
31/03:00pm 22.3 20.0 13.1 56 5.3 SSW 17 20 9 11 1022.6 1022.6 0.0
31/02:30pm 22.3 20.9 13.4 57 5.1 SSW 13 19 7 10 1022.9 1022.9 0.0
31/02:00pm 22.3 21.0 13.6 58 5.0 SW 13 17 7 9 1023.4 1023.4 0.0
31/01:30pm 23.0 21.9 13.2 54 5.7 SW 11 15 6 8 1023.9 1023.9 0.0
31/01:00pm 21.3 20.6 13.2 60 4.6 SW 9 13 5 7 1024.5 1024.5 0.0
31/12:30pm 20.6 19.9 13.1 62 4.3 SSW 9 17 5 9 1025.0 1025.0 0.0
31/12:00pm 21.0 19.8 11.6 55 5.2 E 9 15 5 8 1025.6 1025.6 0.0
31/11:30am 19.5 19.1 12.5 64 3.9 WNW 6 7 3 4 1026.2 1026.2 0.0
31/11:00am 18.0 17.5 12.5 70 3.0 SSW 7 11 4 6 1026.9 1026.9 0.0
31/10:30am 17.6 16.9 11.4 67 3.4 W 6 9 3 5 1027.1 1027.1 0.0
31/10:00am 16.5 15.7 11.2 71 2.8 NNW 6 9 3 5 1027.0 1027.0 0.0
31/09:30am 15.2 14.6 11.8 80 1.8 N 6 7 3 4 1026.9 1026.9 0.0
31/09:00am 13.2 12.6 11.8 91 0.7 N 6 7 3 4 1026.7 1026.7 0.0
31/08:30am 11.6 10.8 11.1 97 0.3 N 6 7 3 4 1026.5 1026.5 0.0
31/08:00am 10.2 9.0 9.7 97 0.2 NNE 6 9 3 5 1026.3 1026.3 0.0
31/07:30am 9.6 9.4 9.1 97 0.2 CALM 0 0 0 0 1026.2 1026.2 0.0
31/07:00am 9.9 9.8 9.4 97 0.2 CALM 0 0 0 0 1025.7 1025.7 0.0
31/06:30am 10.2 10.2 9.7 97 0.3 CALM 0 0 0 0 1025.5 1025.5 0.0
31/06:00am 9.3 9.0 8.5 95 0.4 CALM 0 0 0 0 1025.4 1025.4 0.0
31/05:33am 10.2 10.1 9.6 96 0.3 CALM 0 0 0 0 1025.3 1025.3 0.0
31/05:30am 10.2 10.1 9.6 96 0.3 CALM 0 0 0 0 1025.3 1025.3 0.0
31/05:09am 9.6 9.3 8.8 95 0.4 CALM 0 0 0 0 1025.1 1025.1 0.0
31/05:00am 9.7 9.5 8.9 95 0.4 CALM 0 0 0 0 1025.1 1025.1 0.0
31/04:30am 10.4 10.3 9.6 95 0.4 CALM 0 0 0 0 1025.2 1025.2 0.0
31/04:00am 10.6 10.6 9.8 95 0.4 CALM 0 0 0 0 1025.4 1025.4 0.0
31/03:30am 11.1 11.2 10.2 94 0.5 CALM 0 0 0 0 1025.5 1025.5 0.0
31/03:00am 11.6 11.8 10.5 93 0.6 CALM 0 0 0 0 1025.7 1025.7 0.0
31/02:30am 11.7 11.9 10.6 93 0.6 CALM 0 0 0 0 1025.8 1025.8 0.0
31/02:00am 12.1 12.4 10.8 92 0.7 CALM 0 0 0 0 1025.9 1025.9 0.0
31/01:30am 12.5 12.9 11.1 91 0.7 CALM 0 0 0 0 1026.0 1026.0 0.0
31/01:00am 13.0 12.3 11.4 90 0.8 E 6 6 3 3 1026.1 1026.1 0.0
31/12:30am 12.9 12.0 10.8 87 1.1 ESE 6 6 3 3 1026.1 1026.1 0.0
31/12:00am 13.5 13.1 11.0 85 1.3 ESE 4 7 2 4 1026.3 1026.3 0.0
 
Date/Time
EDT
Temp
°C
App
Temp
°C
Dew
Point
Rel
Hum
%
Delta-T
°C
Wind Press
QNH
hPa
Press
MSL
hPa
Rain
since 9 am
mm
Dir
 
Spd
km/h
Gust
km/h
Spd
kts
Gust
kts
30/11:30pm 14.0 12.7 11.3 84 1.4 SSE 9 11 5 6 1026.4 1026.4 0.0
30/11:00pm 14.4 13.5 11.2 81 1.7 SSE 7 9 4 5 1026.6 1026.6 0.0
30/10:30pm 14.8 13.9 11.4 80 1.8 SSE 7 9 4 5 1026.5 1026.5 0.0
30/10:00pm 15.1 13.8 11.1 77 2.1 SSE 9 9 5 5 1026.4 1026.4 0.0
30/09:30pm 15.4 13.9 10.6 73 2.5 SSE 9 11 5 6 1026.3 1026.3 0.0
30/09:00pm 16.1 14.2 10.6 70 2.9 SE 11 13 6 7 1026.1 1026.1 0.0
30/08:30pm 16.7 14.9 10.8 68 3.2 SE 11 15 6 8 1025.8 1025.8 0.0
30/08:00pm 17.7 14.4 10.8 64 3.7 SE 19 22 10 12 1025.3 1025.3 0.0
30/07:30pm 18.3 14.9 10.7 61 4.1 SE 19 22 10 12 1024.9 1024.9 0.0
30/07:00pm 19.8 16.8 10.5 55 5.0 SE 17 22 9 12 1024.6 1024.6 0.0
30/06:30pm 20.2 17.5 11.7 58 4.7 SSW 17 22 9 12 1024.2 1024.2 0.0
30/06:00pm 20.9 19.0 11.8 56 5.0 SSW 13 17 7 9 1023.9 1023.9 0.0
30/05:30pm 21.2 18.7 11.0 52 5.6 SSW 15 20 8 11 1023.5 1023.5 0.0
30/05:00pm 21.5 18.5 10.6 50 5.9 SSW 17 22 9 12 1023.4 1023.4 0.0
30/04:30pm 21.2 18.4 10.1 49 6.0 S 15 19 8 10 1023.3 1023.3 0.0
30/04:00pm 21.9 19.1 10.1 47 6.4 SSW 15 20 8 11 1023.3 1023.3 0.0
30/03:30pm 21.3 18.4 9.5 47 6.3 SSW 15 20 8 11 1023.6 1023.6 0.0
30/03:00pm 21.1 18.1 9.4 47 6.2 S 15 20 8 11 1023.8 1023.8 0.0
30/02:30pm 20.8 17.7 10.3 51 5.7 SSW 17 19 9 10 1024.0 1024.0 0.0
30/02:00pm 19.8 15.8 10.5 55 5.0 SW 22 28 12 15 1024.2 1024.2 0.0
30/01:30pm 19.8 16.9 11.0 57 4.8 SW 17 22 9 12 1024.3 1024.3 0.0
30/01:00pm 18.8 16.2 11.9 64 3.8 SW 17 24 9 13 1024.5 1024.5 0.0
30/12:30pm 19.2 16.2 10.5 57 4.7 SW 17 20 9 11 1024.6 1024.6 0.0
30/12:00pm 20.7 19.0 11.1 54 5.3 S 11 20 6 11 1024.6 1024.6 0.0
30/11:30am 20.2 19.2 11.1 56 5.0 W 7 11 4 6 1024.9 1024.9 0.0
30/11:00am 18.5 17.6 10.6 60 4.2 W 6 9 3 5 1025.1 1025.1 0.0
30/10:30am 18.3 17.3 10.2 59 4.3 WSW 6 13 3 7 1025.1 1025.1 0.0
30/10:00am 17.0 15.9 10.6 66 3.4 N 7 9 4 5 1024.7 1024.7 0.0

Other Formats:

Comma delimited format used in spreadsheet applications
http://www.bom.gov.au/fwo/IDV60801/IDV60801.94870.axf

JavaScript Object Notation format (JSON) in row-major order
http://www.bom.gov.au/fwo/IDV60801/IDV60801.94870.json